E7BMS LWOH-LDSP
Flight info
| Callsign | E7BMS |
|---|---|
| Flight time | 1h 10m |
| Altitude | 22000 |
| Route | TETO1C TETOV DCT POD DCT DBK DCT HUM STAR |
| Aircraft | TBM9/L-V/N |
Departure
| Time | 2026-05-07 19:44 |
|---|---|
| Airport | Ohrid St. Paul the Apostle Airport (LWOH) |
Arrival
| Time | 2026-05-07 20:54 |
|---|---|
| Airport | Split Saint Jerome Airport (LDSP) |
| Time | Latitude | Longitude | Altitude | Speed | Heading |
|---|---|---|---|---|---|
| 2026-05-07 19:37 | 41.17929 | 20.74442 | 2313 ft | 0 kts | 108° |
| 2026-05-07 19:39 | 41.17935 | 20.74419 | 2317 ft | 3 kts | 108° |
| 2026-05-07 19:39 | 41.17939 | 20.74404 | 2313 ft | 3 kts | 108° |
| 2026-05-07 19:39 | 41.17935 | 20.74384 | 2313 ft | 3 kts | 13° |
| 2026-05-07 19:40 | 41.17927 | 20.74386 | 2318 ft | 0 kts | 319° |
| 2026-05-07 19:41 | 41.17929 | 20.74383 | 2318 ft | 1 kts | 318° |
| 2026-05-07 19:41 | 41.17948 | 20.74365 | 2317 ft | 6 kts | 340° |
| 2026-05-07 19:42 | 41.18012 | 20.74381 | 2313 ft | 13 kts | 18° |
| 2026-05-07 19:42 | 41.18114 | 20.74426 | 2313 ft | 18 kts | 18° |
| 2026-05-07 19:42 | 41.18206 | 20.74468 | 2313 ft | 10 kts | 16° |
| 2026-05-07 19:42 | 41.18260 | 20.74466 | 2316 ft | 6 kts | 332° |
| 2026-05-07 19:43 | 41.18292 | 20.74443 | 2314 ft | 4 kts | 331° |
| 2026-05-07 19:43 | 41.18313 | 20.74427 | 2315 ft | 4 kts | 330° |
| 2026-05-07 19:43 | 41.18338 | 20.74408 | 2315 ft | 5 kts | 330° |
| 2026-05-07 19:43 | 41.18335 | 20.74377 | 2315 ft | 6 kts | 196° |
| 2026-05-07 19:44 | 41.18225 | 20.74330 | 2314 ft | 40 kts | 198° |
| 2026-05-07 19:44 | 41.17778 | 20.74139 | 2315 ft | 93 kts | 198° |
| 2026-05-07 19:44 | 41.17054 | 20.73841 | 2526 ft | 116 kts | 196° |
| 2026-05-07 19:44 | 41.16243 | 20.73587 | 2937 ft | 123 kts | 193° |
| 2026-05-07 19:45 | 41.15389 | 20.73335 | 3382 ft | 128 kts | 192° |
| 2026-05-07 19:45 | 41.14495 | 20.73315 | 3837 ft | 131 kts | 171° |
| 2026-05-07 19:45 | 41.13571 | 20.73463 | 4272 ft | 136 kts | 173° |
| 2026-05-07 19:45 | 41.12593 | 20.73618 | 4652 ft | 147 kts | 173° |
| 2026-05-07 19:46 | 41.11551 | 20.73788 | 5024 ft | 158 kts | 173° |
| 2026-05-07 19:46 | 41.10413 | 20.73980 | 5404 ft | 167 kts | 173° |
| 2026-05-07 19:46 | 41.09235 | 20.74193 | 5782 ft | 174 kts | 173° |
| 2026-05-07 19:46 | 41.08037 | 20.74481 | 6158 ft | 181 kts | 161° |
| 2026-05-07 19:47 | 41.07091 | 20.75600 | 6543 ft | 192 kts | 120° |
| 2026-05-07 19:47 | 41.06920 | 20.77375 | 6910 ft | 203 kts | 80° |
| 2026-05-07 19:47 | 41.07651 | 20.78976 | 7280 ft | 209 kts | 39° |
| 2026-05-07 19:47 | 41.08983 | 20.79674 | 7653 ft | 209 kts | 360° |
| 2026-05-07 19:48 | 41.10345 | 20.79182 | 8029 ft | 204 kts | 326° |
| 2026-05-07 19:48 | 41.11612 | 20.78311 | 8412 ft | 207 kts | 330° |
| 2026-05-07 19:48 | 41.12929 | 20.77505 | 8796 ft | 209 kts | 331° |
| 2026-05-07 19:48 | 41.14302 | 20.76825 | 9181 ft | 215 kts | 348° |
| 2026-05-07 19:49 | 41.15809 | 20.77034 | 9569 ft | 222 kts | 11° |
| 2026-05-07 19:49 | 41.17293 | 20.77456 | 9953 ft | 219 kts | 356° |
| 2026-05-07 19:49 | 41.18691 | 20.76892 | 10313 ft | 208 kts | 318° |
| 2026-05-07 19:49 | 41.19609 | 20.75460 | 10682 ft | 203 kts | 299° |
| 2026-05-07 19:50 | 41.20515 | 20.73996 | 11046 ft | 208 kts | 309° |
| 2026-05-07 19:50 | 41.21577 | 20.72680 | 11416 ft | 209 kts | 313° |
| 2026-05-07 19:50 | 41.22662 | 20.71386 | 11790 ft | 210 kts | 312° |
| 2026-05-07 19:50 | 41.23737 | 20.70075 | 12163 ft | 210 kts | 311° |
| 2026-05-07 19:51 | 41.24813 | 20.68752 | 12544 ft | 210 kts | 311° |
| 2026-05-07 19:51 | 41.25889 | 20.67429 | 12927 ft | 211 kts | 311° |
| 2026-05-07 19:51 | 41.26965 | 20.66107 | 13313 ft | 210 kts | 311° |
| 2026-05-07 19:51 | 41.28037 | 20.64791 | 13708 ft | 210 kts | 311° |
| 2026-05-07 19:52 | 41.29117 | 20.63458 | 14074 ft | 212 kts | 312° |
| 2026-05-07 19:52 | 41.30203 | 20.62128 | 14436 ft | 213 kts | 312° |
| 2026-05-07 19:52 | 41.31291 | 20.60789 | 14789 ft | 213 kts | 312° |
| 2026-05-07 19:52 | 41.32374 | 20.59455 | 15144 ft | 212 kts | 312° |
| 2026-05-07 19:53 | 41.33459 | 20.58120 | 15505 ft | 212 kts | 312° |
| 2026-05-07 19:53 | 41.34539 | 20.56787 | 15871 ft | 211 kts | 312° |
| 2026-05-07 19:53 | 41.35613 | 20.55462 | 16241 ft | 211 kts | 313° |
| 2026-05-07 19:53 | 41.36693 | 20.54132 | 16620 ft | 212 kts | 313° |
| 2026-05-07 19:54 | 41.37776 | 20.52792 | 17000 ft | 213 kts | 313° |
| 2026-05-07 19:54 | 41.38865 | 20.51448 | 17382 ft | 213 kts | 313° |
| 2026-05-07 19:54 | 41.39947 | 20.50112 | 17695 ft | 218 kts | 313° |
| 2026-05-07 19:54 | 41.41072 | 20.48721 | 17958 ft | 223 kts | 313° |
| 2026-05-07 19:55 | 41.42224 | 20.47295 | 18229 ft | 228 kts | 313° |
| 2026-05-07 19:55 | 41.43398 | 20.45843 | 18486 ft | 232 kts | 313° |
| 2026-05-07 19:55 | 41.44588 | 20.44371 | 18717 ft | 234 kts | 313° |
| 2026-05-07 19:55 | 41.45791 | 20.42884 | 18955 ft | 237 kts | 313° |
| 2026-05-07 19:56 | 41.47004 | 20.41378 | 19193 ft | 240 kts | 313° |
| 2026-05-07 19:56 | 41.48228 | 20.39860 | 19425 ft | 242 kts | 313° |
| 2026-05-07 19:56 | 41.49468 | 20.38323 | 19668 ft | 243 kts | 313° |
| 2026-05-07 19:56 | 41.50711 | 20.36781 | 19905 ft | 244 kts | 313° |
| 2026-05-07 19:57 | 41.51956 | 20.35235 | 20148 ft | 245 kts | 313° |
| 2026-05-07 19:57 | 41.53191 | 20.33701 | 20387 ft | 245 kts | 313° |
| 2026-05-07 19:57 | 41.54444 | 20.32145 | 20634 ft | 246 kts | 313° |
| 2026-05-07 19:57 | 41.55697 | 20.30583 | 20881 ft | 247 kts | 313° |
| 2026-05-07 19:58 | 41.56954 | 20.29019 | 21132 ft | 247 kts | 313° |
| 2026-05-07 19:58 | 41.58212 | 20.27453 | 21384 ft | 248 kts | 313° |
| 2026-05-07 19:58 | 41.59474 | 20.25880 | 21637 ft | 248 kts | 313° |
| 2026-05-07 19:58 | 41.60731 | 20.24315 | 21891 ft | 247 kts | 312° |
| 2026-05-07 19:59 | 41.61999 | 20.22732 | 21966 ft | 254 kts | 312° |
| 2026-05-07 19:59 | 41.63310 | 20.21094 | 21969 ft | 262 kts | 313° |
| 2026-05-07 19:59 | 41.64605 | 20.19475 | 21974 ft | 268 kts | 313° |
| 2026-05-07 19:59 | 41.65979 | 20.17761 | 21975 ft | 273 kts | 313° |
| 2026-05-07 20:00 | 41.67378 | 20.16012 | 21976 ft | 277 kts | 313° |
| 2026-05-07 20:00 | 41.68792 | 20.14245 | 21975 ft | 279 kts | 313° |
| 2026-05-07 20:00 | 41.70216 | 20.12462 | 21972 ft | 281 kts | 313° |
| 2026-05-07 20:00 | 41.71649 | 20.10667 | 21974 ft | 282 kts | 313° |
| 2026-05-07 20:01 | 41.73086 | 20.08865 | 22039 ft | 281 kts | 313° |
| 2026-05-07 20:01 | 41.74495 | 20.07099 | 22090 ft | 282 kts | 313° |
| 2026-05-07 20:01 | 41.75931 | 20.05298 | 22085 ft | 283 kts | 313° |
| 2026-05-07 20:01 | 41.77369 | 20.03490 | 22087 ft | 284 kts | 313° |
| 2026-05-07 20:02 | 41.78812 | 20.01677 | 22091 ft | 285 kts | 313° |
| 2026-05-07 20:02 | 41.80258 | 19.99857 | 22088 ft | 285 kts | 313° |
| 2026-05-07 20:02 | 41.81707 | 19.98036 | 22087 ft | 285 kts | 313° |
| 2026-05-07 20:02 | 41.83153 | 19.96216 | 22088 ft | 285 kts | 313° |
| 2026-05-07 20:03 | 41.84598 | 19.94394 | 22087 ft | 285 kts | 312° |
| 2026-05-07 20:03 | 41.86043 | 19.92571 | 22089 ft | 285 kts | 312° |
| 2026-05-07 20:03 | 41.87490 | 19.90746 | 22083 ft | 285 kts | 312° |
| 2026-05-07 20:03 | 41.88934 | 19.88925 | 22084 ft | 284 kts | 313° |
| 2026-05-07 20:04 | 41.90373 | 19.87107 | 22085 ft | 284 kts | 312° |
| 2026-05-07 20:04 | 41.91810 | 19.85287 | 22077 ft | 284 kts | 312° |
| 2026-05-07 20:04 | 41.93251 | 19.83466 | 22081 ft | 284 kts | 312° |
| 2026-05-07 20:04 | 41.94690 | 19.81646 | 22077 ft | 284 kts | 312° |
| 2026-05-07 20:05 | 41.96130 | 19.79821 | 22081 ft | 285 kts | 312° |
| 2026-05-07 20:05 | 41.97568 | 19.77999 | 22085 ft | 285 kts | 312° |
| 2026-05-07 20:05 | 41.99011 | 19.76168 | 22082 ft | 284 kts | 312° |
| 2026-05-07 20:05 | 42.00447 | 19.74347 | 22075 ft | 284 kts | 312° |
| 2026-05-07 20:06 | 42.01884 | 19.72522 | 22080 ft | 284 kts | 312° |
| 2026-05-07 20:06 | 42.03322 | 19.70695 | 22082 ft | 284 kts | 312° |
| 2026-05-07 20:06 | 42.04760 | 19.68866 | 22078 ft | 285 kts | 312° |
| 2026-05-07 20:06 | 42.06204 | 19.67030 | 22078 ft | 285 kts | 312° |
| 2026-05-07 20:07 | 42.07629 | 19.65215 | 22078 ft | 285 kts | 312° |
| 2026-05-07 20:07 | 42.09087 | 19.63357 | 22078 ft | 285 kts | 312° |
| 2026-05-07 20:07 | 42.10507 | 19.61547 | 22076 ft | 285 kts | 312° |
| 2026-05-07 20:07 | 42.11948 | 19.59708 | 22080 ft | 285 kts | 312° |
| 2026-05-07 20:08 | 42.13387 | 19.57871 | 22081 ft | 285 kts | 312° |
| 2026-05-07 20:08 | 42.14830 | 19.56028 | 22081 ft | 285 kts | 312° |
| 2026-05-07 20:08 | 42.16272 | 19.54185 | 22086 ft | 285 kts | 312° |
| 2026-05-07 20:08 | 42.17712 | 19.52344 | 22085 ft | 285 kts | 312° |
| 2026-05-07 20:09 | 42.19154 | 19.50497 | 22094 ft | 285 kts | 312° |
| 2026-05-07 20:09 | 42.20594 | 19.48652 | 22093 ft | 285 kts | 312° |
| 2026-05-07 20:09 | 42.22021 | 19.46825 | 22097 ft | 285 kts | 312° |
| 2026-05-07 20:10 | 42.24896 | 19.43138 | 22102 ft | 285 kts | 312° |
| 2026-05-07 20:10 | 42.26334 | 19.41290 | 22104 ft | 285 kts | 312° |
| 2026-05-07 20:10 | 42.27772 | 19.39443 | 22106 ft | 285 kts | 312° |
| 2026-05-07 20:10 | 42.29207 | 19.37597 | 22107 ft | 285 kts | 312° |
| 2026-05-07 20:11 | 42.30643 | 19.35750 | 22110 ft | 285 kts | 312° |
| 2026-05-07 20:11 | 42.32075 | 19.33905 | 22112 ft | 285 kts | 312° |
| 2026-05-07 20:11 | 42.33508 | 19.32059 | 22112 ft | 285 kts | 311° |
| 2026-05-07 20:11 | 42.34942 | 19.30211 | 22113 ft | 284 kts | 311° |
| 2026-05-07 20:12 | 42.36372 | 19.28365 | 22112 ft | 284 kts | 311° |
| 2026-05-07 20:12 | 42.37704 | 19.26407 | 22110 ft | 280 kts | 302° |
| 2026-05-07 20:12 | 42.38689 | 19.24164 | 22113 ft | 276 kts | 291° |
| 2026-05-07 20:12 | 42.39320 | 19.21723 | 22111 ft | 273 kts | 281° |
| 2026-05-07 20:13 | 42.39773 | 19.19227 | 22112 ft | 273 kts | 281° |
| 2026-05-07 20:13 | 42.40245 | 19.16728 | 22112 ft | 273 kts | 281° |
| 2026-05-07 20:13 | 42.40705 | 19.14268 | 22111 ft | 274 kts | 281° |
| 2026-05-07 20:13 | 42.41168 | 19.11764 | 22108 ft | 274 kts | 281° |
| 2026-05-07 20:14 | 42.41628 | 19.09272 | 22107 ft | 274 kts | 281° |
| 2026-05-07 20:14 | 42.42091 | 19.06769 | 22106 ft | 274 kts | 281° |
| 2026-05-07 20:14 | 42.42553 | 19.04269 | 22104 ft | 274 kts | 281° |
| 2026-05-07 20:14 | 42.43014 | 19.01764 | 22102 ft | 274 kts | 281° |
| 2026-05-07 20:15 | 42.43475 | 18.99265 | 22102 ft | 274 kts | 281° |
| 2026-05-07 20:15 | 42.43934 | 18.96766 | 22100 ft | 274 kts | 281° |
| 2026-05-07 20:15 | 42.44394 | 18.94267 | 22101 ft | 274 kts | 281° |
| 2026-05-07 20:15 | 42.44855 | 18.91753 | 22104 ft | 274 kts | 281° |
| 2026-05-07 20:16 | 42.45313 | 18.89248 | 22106 ft | 274 kts | 281° |
| 2026-05-07 20:16 | 42.45772 | 18.86740 | 22109 ft | 274 kts | 281° |
| 2026-05-07 20:16 | 42.46231 | 18.84231 | 22108 ft | 274 kts | 281° |
| 2026-05-07 20:16 | 42.46689 | 18.81721 | 22110 ft | 274 kts | 281° |
| 2026-05-07 20:17 | 42.47147 | 18.79201 | 22112 ft | 275 kts | 281° |
| 2026-05-07 20:17 | 42.47598 | 18.76724 | 22113 ft | 275 kts | 281° |
| 2026-05-07 20:17 | 42.48056 | 18.74203 | 22109 ft | 275 kts | 281° |
| 2026-05-07 20:17 | 42.48513 | 18.71689 | 22113 ft | 275 kts | 281° |
| 2026-05-07 20:18 | 42.48968 | 18.69172 | 22110 ft | 275 kts | 281° |
| 2026-05-07 20:18 | 42.49425 | 18.66653 | 22108 ft | 275 kts | 281° |
| 2026-05-07 20:18 | 42.49880 | 18.64136 | 22108 ft | 275 kts | 281° |
| 2026-05-07 20:18 | 42.50330 | 18.61639 | 22104 ft | 274 kts | 281° |
| 2026-05-07 20:19 | 42.50783 | 18.59131 | 22105 ft | 274 kts | 281° |
| 2026-05-07 20:19 | 42.51208 | 18.56771 | 22104 ft | 274 kts | 281° |
| 2026-05-07 20:19 | 42.51659 | 18.54259 | 22097 ft | 274 kts | 281° |
| 2026-05-07 20:19 | 42.52110 | 18.51741 | 22098 ft | 275 kts | 281° |
| 2026-05-07 20:20 | 42.52562 | 18.49226 | 22079 ft | 275 kts | 281° |
| 2026-05-07 20:20 | 42.53013 | 18.46707 | 22080 ft | 275 kts | 281° |
| 2026-05-07 20:20 | 42.53463 | 18.44189 | 22080 ft | 274 kts | 281° |
| 2026-05-07 20:20 | 42.53906 | 18.41711 | 22081 ft | 274 kts | 281° |
| 2026-05-07 20:21 | 42.54354 | 18.39195 | 22081 ft | 275 kts | 281° |
| 2026-05-07 20:21 | 42.54803 | 18.36677 | 22084 ft | 275 kts | 281° |
| 2026-05-07 20:21 | 42.55250 | 18.34154 | 22084 ft | 275 kts | 281° |
| 2026-05-07 20:21 | 42.55700 | 18.31627 | 22085 ft | 275 kts | 281° |
| 2026-05-07 20:22 | 42.56148 | 18.29101 | 22088 ft | 275 kts | 280° |
| 2026-05-07 20:22 | 42.56624 | 18.26592 | 22087 ft | 275 kts | 285° |
| 2026-05-07 20:22 | 42.57421 | 18.24219 | 22085 ft | 279 kts | 296° |
| 2026-05-07 20:22 | 42.58467 | 18.21993 | 22079 ft | 280 kts | 298° |
| 2026-05-07 20:23 | 42.59508 | 18.19764 | 22085 ft | 279 kts | 298° |
| 2026-05-07 20:23 | 42.60545 | 18.17530 | 22084 ft | 279 kts | 298° |
| 2026-05-07 20:23 | 42.61587 | 18.15297 | 22083 ft | 279 kts | 298° |
| 2026-05-07 20:23 | 42.62628 | 18.13069 | 22078 ft | 279 kts | 298° |
| 2026-05-07 20:24 | 42.63667 | 18.10840 | 22082 ft | 279 kts | 298° |
| 2026-05-07 20:24 | 42.64355 | 18.09364 | 22082 ft | 279 kts | 298° |
| 2026-05-07 20:24 | 42.65393 | 18.07133 | 22077 ft | 279 kts | 298° |
| 2026-05-07 20:24 | 42.66435 | 18.04894 | 22074 ft | 280 kts | 297° |
| 2026-05-07 20:25 | 42.67812 | 18.01933 | 22073 ft | 279 kts | 297° |
| 2026-05-07 20:25 | 42.68849 | 17.99698 | 22076 ft | 279 kts | 297° |
| 2026-05-07 20:25 | 42.69550 | 17.98190 | 22074 ft | 279 kts | 297° |
| 2026-05-07 20:25 | 42.70586 | 17.95955 | 22070 ft | 279 kts | 297° |
| 2026-05-07 20:26 | 42.71621 | 17.93723 | 22070 ft | 279 kts | 297° |
| 2026-05-07 20:26 | 42.72657 | 17.91487 | 22034 ft | 280 kts | 297° |
| 2026-05-07 20:26 | 42.73697 | 17.89231 | 21728 ft | 289 kts | 297° |
| 2026-05-07 20:26 | 42.74779 | 17.86893 | 21417 ft | 295 kts | 297° |
| 2026-05-07 20:27 | 42.75879 | 17.84515 | 21115 ft | 298 kts | 298° |
| 2026-05-07 20:27 | 42.76988 | 17.82117 | 20818 ft | 301 kts | 298° |
| 2026-05-07 20:27 | 42.78101 | 17.79703 | 20521 ft | 302 kts | 297° |
| 2026-05-07 20:27 | 42.79218 | 17.77281 | 20232 ft | 302 kts | 298° |
| 2026-05-07 20:28 | 42.80335 | 17.74855 | 19936 ft | 303 kts | 298° |
| 2026-05-07 20:28 | 42.81451 | 17.72430 | 19647 ft | 302 kts | 297° |
| 2026-05-07 20:28 | 42.82565 | 17.70006 | 19357 ft | 301 kts | 298° |
| 2026-05-07 20:28 | 42.83678 | 17.67593 | 19078 ft | 301 kts | 298° |
| 2026-05-07 20:29 | 42.84785 | 17.65176 | 18800 ft | 300 kts | 297° |
| 2026-05-07 20:29 | 42.85891 | 17.62764 | 18522 ft | 300 kts | 297° |
| 2026-05-07 20:29 | 42.86997 | 17.60350 | 18236 ft | 300 kts | 298° |
| 2026-05-07 20:29 | 42.88102 | 17.57943 | 17908 ft | 299 kts | 298° |
| 2026-05-07 20:30 | 42.89199 | 17.55540 | 17593 ft | 298 kts | 298° |
| 2026-05-07 20:30 | 42.90295 | 17.53142 | 17277 ft | 297 kts | 298° |
| 2026-05-07 20:30 | 42.91387 | 17.50756 | 16973 ft | 296 kts | 298° |
| 2026-05-07 20:30 | 42.92474 | 17.48374 | 16666 ft | 295 kts | 298° |
| 2026-05-07 20:31 | 42.93557 | 17.45998 | 16363 ft | 294 kts | 298° |
| 2026-05-07 20:31 | 42.94639 | 17.43628 | 16064 ft | 293 kts | 298° |
| 2026-05-07 20:31 | 42.95712 | 17.41268 | 15765 ft | 292 kts | 298° |
| 2026-05-07 20:31 | 42.96770 | 17.38942 | 15474 ft | 292 kts | 298° |
| 2026-05-07 20:32 | 42.97838 | 17.36595 | 15180 ft | 290 kts | 298° |
| 2026-05-07 20:32 | 42.98900 | 17.34254 | 14891 ft | 289 kts | 298° |
| 2026-05-07 20:32 | 42.99957 | 17.31926 | 14606 ft | 288 kts | 298° |
| 2026-05-07 20:32 | 43.01015 | 17.29601 | 14321 ft | 288 kts | 298° |
| 2026-05-07 20:33 | 43.02067 | 17.27276 | 14039 ft | 287 kts | 298° |
| 2026-05-07 20:33 | 43.03116 | 17.24958 | 13747 ft | 287 kts | 299° |
| 2026-05-07 20:33 | 43.04166 | 17.22640 | 13433 ft | 286 kts | 298° |
| 2026-05-07 20:33 | 43.05213 | 17.20320 | 13114 ft | 286 kts | 298° |
| 2026-05-07 20:34 | 43.06258 | 17.18011 | 12802 ft | 285 kts | 298° |
| 2026-05-07 20:34 | 43.07299 | 17.15702 | 12493 ft | 285 kts | 298° |
| 2026-05-07 20:34 | 43.08338 | 17.13400 | 12186 ft | 284 kts | 298° |
| 2026-05-07 20:34 | 43.09374 | 17.11102 | 11887 ft | 284 kts | 298° |
| 2026-05-07 20:35 | 43.10407 | 17.08805 | 11587 ft | 283 kts | 298° |
| 2026-05-07 20:35 | 43.11440 | 17.06513 | 11290 ft | 283 kts | 298° |
| 2026-05-07 20:35 | 43.12471 | 17.04218 | 10997 ft | 283 kts | 298° |
| 2026-05-07 20:35 | 43.13500 | 17.01926 | 10705 ft | 282 kts | 298° |
| 2026-05-07 20:36 | 43.14527 | 16.99643 | 10416 ft | 281 kts | 298° |
| 2026-05-07 20:36 | 43.15547 | 16.97369 | 10129 ft | 280 kts | 298° |
| 2026-05-07 20:36 | 43.16564 | 16.95098 | 9835 ft | 280 kts | 298° |
| 2026-05-07 20:36 | 43.17569 | 16.92854 | 9523 ft | 280 kts | 298° |
| 2026-05-07 20:37 | 43.18583 | 16.90586 | 9210 ft | 279 kts | 298° |
| 2026-05-07 20:37 | 43.19600 | 16.88319 | 8902 ft | 278 kts | 298° |
| 2026-05-07 20:37 | 43.20608 | 16.86058 | 8597 ft | 278 kts | 298° |
| 2026-05-07 20:37 | 43.21616 | 16.83804 | 8294 ft | 277 kts | 298° |
| 2026-05-07 20:38 | 43.22622 | 16.81551 | 7994 ft | 277 kts | 298° |
| 2026-05-07 20:38 | 43.23625 | 16.79296 | 7694 ft | 276 kts | 298° |
| 2026-05-07 20:38 | 43.24627 | 16.77051 | 7399 ft | 276 kts | 298° |
| 2026-05-07 20:38 | 43.25625 | 16.74810 | 7109 ft | 275 kts | 299° |
| 2026-05-07 20:39 | 43.26619 | 16.72573 | 6819 ft | 274 kts | 299° |
| 2026-05-07 20:39 | 43.27615 | 16.70335 | 6530 ft | 275 kts | 299° |
| 2026-05-07 20:39 | 43.28610 | 16.68101 | 6227 ft | 274 kts | 300° |
| 2026-05-07 20:39 | 43.29745 | 16.66004 | 5920 ft | 274 kts | 306° |
| 2026-05-07 20:40 | 43.30926 | 16.63960 | 5617 ft | 272 kts | 306° |
| 2026-05-07 20:40 | 43.32074 | 16.61898 | 5321 ft | 272 kts | 305° |
| 2026-05-07 20:40 | 43.33224 | 16.59840 | 5024 ft | 271 kts | 306° |
| 2026-05-07 20:40 | 43.34378 | 16.57789 | 4730 ft | 271 kts | 306° |
| 2026-05-07 20:41 | 43.35540 | 16.55743 | 4416 ft | 271 kts | 308° |
| 2026-05-07 20:41 | 43.36738 | 16.53744 | 4118 ft | 270 kts | 302° |
| 2026-05-07 20:41 | 43.37338 | 16.51343 | 3811 ft | 267 kts | 272° |
| 2026-05-07 20:41 | 43.37087 | 16.48849 | 3508 ft | 263 kts | 248° |
| 2026-05-07 20:42 | 43.36114 | 16.46781 | 3207 ft | 257 kts | 220° |
| 2026-05-07 20:42 | 43.34595 | 16.45536 | 2923 ft | 253 kts | 206° |
| 2026-05-07 20:42 | 43.33253 | 16.44025 | 2907 ft | 249 kts | 225° |
| 2026-05-07 20:42 | 43.32190 | 16.42192 | 2899 ft | 241 kts | 232° |
| 2026-05-07 20:43 | 43.31365 | 16.40252 | 2899 ft | 237 kts | 240° |
| 2026-05-07 20:43 | 43.30718 | 16.38185 | 2897 ft | 235 kts | 247° |
| 2026-05-07 20:43 | 43.30246 | 16.36036 | 2897 ft | 235 kts | 253° |
| 2026-05-07 20:43 | 43.29949 | 16.33831 | 2900 ft | 236 kts | 263° |
| 2026-05-07 20:44 | 43.29977 | 16.31568 | 2898 ft | 237 kts | 272° |
| 2026-05-07 20:44 | 43.30087 | 16.29316 | 2898 ft | 236 kts | 270° |
| 2026-05-07 20:44 | 43.30130 | 16.27063 | 2901 ft | 236 kts | 268° |
| 2026-05-07 20:44 | 43.30154 | 16.24864 | 2897 ft | 223 kts | 268° |
| 2026-05-07 20:45 | 43.30188 | 16.22777 | 2893 ft | 215 kts | 268° |
| 2026-05-07 20:45 | 43.30219 | 16.20751 | 2891 ft | 210 kts | 268° |
| 2026-05-07 20:45 | 43.30251 | 16.18751 | 2885 ft | 208 kts | 268° |
| 2026-05-07 20:45 | 43.30282 | 16.16772 | 2889 ft | 207 kts | 268° |
| 2026-05-07 20:46 | 43.30522 | 16.14820 | 2882 ft | 210 kts | 289° |
| 2026-05-07 20:46 | 43.31252 | 16.13108 | 2882 ft | 211 kts | 310° |
| 2026-05-07 20:46 | 43.32364 | 16.11783 | 2883 ft | 210 kts | 323° |
| 2026-05-07 20:46 | 43.33513 | 16.10580 | 2886 ft | 210 kts | 322° |
| 2026-05-07 20:47 | 43.34671 | 16.09354 | 2884 ft | 210 kts | 323° |
| 2026-05-07 20:47 | 43.35834 | 16.08126 | 2889 ft | 211 kts | 323° |
| 2026-05-07 20:47 | 43.37028 | 16.06967 | 2889 ft | 210 kts | 334° |
| 2026-05-07 20:47 | 43.38420 | 16.06420 | 2886 ft | 208 kts | 356° |
| 2026-05-07 20:48 | 43.39843 | 16.06566 | 2887 ft | 205 kts | 18° |
| 2026-05-07 20:48 | 43.41123 | 16.07371 | 2895 ft | 201 kts | 39° |
| 2026-05-07 20:48 | 43.42099 | 16.08679 | 2910 ft | 192 kts | 54° |
| 2026-05-07 20:48 | 43.42926 | 16.10100 | 2907 ft | 189 kts | 56° |
| 2026-05-07 20:49 | 43.43693 | 16.11476 | 2905 ft | 171 kts | 58° |
| 2026-05-07 20:49 | 43.44384 | 16.12723 | 2899 ft | 158 kts | 58° |
| 2026-05-07 20:49 | 43.44981 | 16.13776 | 2765 ft | 124 kts | 59° |
| 2026-05-07 20:49 | 43.45473 | 16.14677 | 2602 ft | 114 kts | 58° |
| 2026-05-07 20:50 | 43.45939 | 16.15501 | 2457 ft | 106 kts | 60° |
| 2026-05-07 20:50 | 43.46385 | 16.16315 | 2313 ft | 107 kts | 59° |
| 2026-05-07 20:50 | 43.46840 | 16.17128 | 2171 ft | 107 kts | 59° |
| 2026-05-07 20:50 | 43.47290 | 16.17935 | 2028 ft | 106 kts | 60° |
| 2026-05-07 20:51 | 43.47725 | 16.18717 | 1891 ft | 103 kts | 59° |
| 2026-05-07 20:51 | 43.48162 | 16.19503 | 1750 ft | 104 kts | 60° |
| 2026-05-07 20:51 | 43.48596 | 16.20284 | 1613 ft | 102 kts | 60° |
| 2026-05-07 20:51 | 43.49026 | 16.21054 | 1471 ft | 100 kts | 58° |
| 2026-05-07 20:52 | 43.49446 | 16.21805 | 1335 ft | 99 kts | 58° |
| 2026-05-07 20:52 | 43.49864 | 16.22561 | 1199 ft | 102 kts | 56° |
| 2026-05-07 20:52 | 43.50302 | 16.23347 | 1058 ft | 103 kts | 55° |
| 2026-05-07 20:52 | 43.50738 | 16.24134 | 913 ft | 104 kts | 51° |
| 2026-05-07 20:53 | 43.51181 | 16.24927 | 767 ft | 104 kts | 49° |
| 2026-05-07 20:53 | 43.51622 | 16.25720 | 628 ft | 104 kts | 49° |
| 2026-05-07 20:53 | 43.52060 | 16.26507 | 488 ft | 103 kts | 49° |
| 2026-05-07 20:53 | 43.52492 | 16.27282 | 351 ft | 101 kts | 50° |
| 2026-05-07 20:54 | 43.52920 | 16.28043 | 203 ft | 100 kts | 50° |
| 2026-05-07 20:54 | 43.53342 | 16.28786 | 92 ft | 97 kts | 53° |
| 2026-05-07 20:54 | 43.53683 | 16.29412 | 75 ft | 66 kts | 53° |
| 2026-05-07 20:54 | 43.53893 | 16.29795 | 69 ft | 45 kts | 52° |
| 2026-05-07 20:55 | 43.54034 | 16.30052 | 57 ft | 19 kts | 53° |
| 2026-05-07 20:55 | 43.54019 | 16.30104 | 59 ft | 11 kts | 199° |
| 2026-05-07 20:55 | 43.53951 | 16.30078 | 60 ft | 10 kts | 195° |
| 2026-05-07 20:55 | 43.53894 | 16.30040 | 57 ft | 10 kts | 229° |
| 2026-05-07 20:56 | 43.53852 | 16.29987 | 61 ft | 7 kts | 143° |
| 2026-05-07 20:56 | 43.53831 | 16.30054 | 60 ft | 5 kts | 114° |
| 2026-05-07 20:56 | 43.53828 | 16.30063 | 61 ft | 0 kts | 114° |